sensor_id;sensor_type;location;lat;lon;timestamp;P1;durP1;ratioP1;P2;durP2;ratioP2
5129;SDS011;2583;50.946;6.954;2023-04-25T00:01:32;21.70;;;5.83;;
5129;SDS011;2583;50.946;6.954;2023-04-25T00:04:02;9.40;;;4.00;;
5129;SDS011;2583;50.946;6.954;2023-04-25T00:06:34;8.33;;;5.43;;
5129;SDS011;2583;50.946;6.954;2023-04-25T00:09:03;10.90;;;4.90;;
5129;SDS011;2583;50.946;6.954;2023-04-25T00:11:34;11.20;;;4.93;;
5129;SDS011;2583;50.946;6.954;2023-04-25T00:14:01;9.37;;;4.67;;
5129;SDS011;2583;50.946;6.954;2023-04-25T00:16:29;12.50;;;6.10;;
5129;SDS011;2583;50.946;6.954;2023-04-25T00:19:01;11.70;;;4.63;;
5129;SDS011;2583;50.946;6.954;2023-04-25T00:21:29;10.47;;;5.23;;
5129;SDS011;2583;50.946;6.954;2023-04-25T00:23:58;14.53;;;4.50;;
5129;SDS011;2583;50.946;6.954;2023-04-25T00:26:26;11.43;;;4.73;;
5129;SDS011;2583;50.946;6.954;2023-04-25T00:28:54;11.33;;;4.87;;
5129;SDS011;2583;50.946;6.954;2023-04-25T00:31:23;9.73;;;4.13;;
5129;SDS011;2583;50.946;6.954;2023-04-25T00:33:50;5.87;;;3.83;;
5129;SDS011;2583;50.946;6.954;2023-04-25T00:36:18;11.20;;;5.20;;
5129;SDS011;2583;50.946;6.954;2023-04-25T00:38:47;10.57;;;5.17;;
5129;SDS011;2583;50.946;6.954;2023-04-25T00:41:14;6.77;;;4.70;;
5129;SDS011;2583;50.946;6.954;2023-04-25T00:43:42;10.03;;;5.33;;
5129;SDS011;2583;50.946;6.954;2023-04-25T00:46:11;9.97;;;4.57;;
5129;SDS011;2583;50.946;6.954;2023-04-25T00:48:39;16.07;;;5.40;;
5129;SDS011;2583;50.946;6.954;2023-04-25T00:51:06;13.50;;;5.20;;
5129;SDS011;2583;50.946;6.954;2023-04-25T00:53:34;9.97;;;5.87;;
5129;SDS011;2583;50.946;6.954;2023-04-25T00:56:03;11.63;;;4.90;;
5129;SDS011;2583;50.946;6.954;2023-04-25T00:58:30;8.03;;;5.30;;
5129;SDS011;2583;50.946;6.954;2023-04-25T01:00:57;10.53;;;4.93;;
5129;SDS011;2583;50.946;6.954;2023-04-25T01:03:26;12.87;;;5.27;;
5129;SDS011;2583;50.946;6.954;2023-04-25T01:05:55;11.07;;;5.23;;
5129;SDS011;2583;50.946;6.954;2023-04-25T01:08:23;11.20;;;5.80;;
5129;SDS011;2583;50.946;6.954;2023-04-25T01:10:54;14.40;;;5.30;;
5129;SDS011;2583;50.946;6.954;2023-04-25T01:13:21;9.67;;;5.20;;
5129;SDS011;2583;50.946;6.954;2023-04-25T01:15:49;9.90;;;5.40;;
5129;SDS011;2583;50.946;6.954;2023-04-25T01:18:16;16.40;;;4.97;;
5129;SDS011;2583;50.946;6.954;2023-04-25T01:20:46;11.30;;;5.63;;
5129;SDS011;2583;50.946;6.954;2023-04-25T01:23:16;16.67;;;5.40;;
5129;SDS011;2583;50.946;6.954;2023-04-25T01:25:44;11.17;;;6.30;;
5129;SDS011;2583;50.946;6.954;2023-04-25T01:28:13;11.67;;;5.63;;
5129;SDS011;2583;50.946;6.954;2023-04-25T01:30:41;12.10;;;5.70;;
5129;SDS011;2583;50.946;6.954;2023-04-25T01:33:09;9.60;;;5.50;;
5129;SDS011;2583;50.946;6.954;2023-04-25T01:35:40;14.20;;;5.90;;
5129;SDS011;2583;50.946;6.954;2023-04-25T01:38:09;10.27;;;4.97;;
5129;SDS011;2583;50.946;6.954;2023-04-25T01:40:38;13.17;;;5.87;;
5129;SDS011;2583;50.946;6.954;2023-04-25T01:43:07;13.20;;;6.10;;
5129;SDS011;2583;50.946;6.954;2023-04-25T01:45:37;13.93;;;6.20;;
5129;SDS011;2583;50.946;6.954;2023-04-25T01:48:09;11.47;;;5.53;;
5129;SDS011;2583;50.946;6.954;2023-04-25T01:50:39;13.07;;;5.60;;
5129;SDS011;2583;50.946;6.954;2023-04-25T01:53:08;10.33;;;5.70;;
5129;SDS011;2583;50.946;6.954;2023-04-25T01:55:36;12.97;;;6.20;;
5129;SDS011;2583;50.946;6.954;2023-04-25T01:58:03;10.80;;;5.17;;
5129;SDS011;2583;50.946;6.954;2023-04-25T02:00:35;18.70;;;6.10;;
5129;SDS011;2583;50.946;6.954;2023-04-25T02:03:07;20.93;;;5.40;;
5129;SDS011;2583;50.946;6.954;2023-04-25T02:05:35;10.47;;;4.57;;
5129;SDS011;2583;50.946;6.954;2023-04-25T02:08:04;16.90;;;5.13;;
5129;SDS011;2583;50.946;6.954;2023-04-25T02:10:33;13.00;;;4.50;;
5129;SDS011;2583;50.946;6.954;2023-04-25T02:13:02;15.00;;;5.20;;
5129;SDS011;2583;50.946;6.954;2023-04-25T02:15:31;9.40;;;4.93;;
5129;SDS011;2583;50.946;6.954;2023-04-25T02:17:59;14.37;;;5.23;;
5129;SDS011;2583;50.946;6.954;2023-04-25T02:20:27;9.67;;;5.07;;
5129;SDS011;2583;50.946;6.954;2023-04-25T02:22:59;20.07;;;5.60;;
5129;SDS011;2583;50.946;6.954;2023-04-25T02:25:27;14.77;;;5.33;;
5129;SDS011;2583;50.946;6.954;2023-04-25T02:27:54;8.97;;;4.43;;
5129;SDS011;2583;50.946;6.954;2023-04-25T02:30:24;10.80;;;5.37;;
5129;SDS011;2583;50.946;6.954;2023-04-25T02:32:52;9.27;;;5.17;;
5129;SDS011;2583;50.946;6.954;2023-04-25T02:35:22;9.90;;;4.67;;
5129;SDS011;2583;50.946;6.954;2023-04-25T02:37:50;14.33;;;4.00;;
5129;SDS011;2583;50.946;6.954;2023-04-25T02:40:17;12.53;;;4.90;;
5129;SDS011;2583;50.946;6.954;2023-04-25T02:42:45;13.07;;;4.87;;
5129;SDS011;2583;50.946;6.954;2023-04-25T02:45:12;5.23;;;3.83;;
5129;SDS011;2583;50.946;6.954;2023-04-25T02:47:40;7.63;;;4.07;;
5129;SDS011;2583;50.946;6.954;2023-04-25T02:50:07;8.93;;;4.23;;
5129;SDS011;2583;50.946;6.954;2023-04-25T02:52:34;6.20;;;4.20;;
5129;SDS011;2583;50.946;6.954;2023-04-25T02:55:01;9.10;;;4.37;;
5129;SDS011;2583;50.946;6.954;2023-04-25T02:57:28;9.20;;;4.20;;
5129;SDS011;2583;50.946;6.954;2023-04-25T02:59:56;7.67;;;3.83;;
5129;SDS011;2583;50.946;6.954;2023-04-25T03:02:23;9.27;;;4.20;;
5129;SDS011;2583;50.946;6.954;2023-04-25T03:04:52;10.47;;;4.80;;
5129;SDS011;2583;50.946;6.954;2023-04-25T03:07:20;5.97;;;4.03;;
5129;SDS011;2583;50.946;6.954;2023-04-25T03:09:48;10.13;;;4.10;;
5129;SDS011;2583;50.946;6.954;2023-04-25T03:12:15;6.30;;;3.90;;
5129;SDS011;2583;50.946;6.954;2023-04-25T03:14:46;9.83;;;4.00;;
5129;SDS011;2583;50.946;6.954;2023-04-25T03:17:13;8.30;;;3.80;;
5129;SDS011;2583;50.946;6.954;2023-04-25T03:19:41;14.10;;;4.80;;
5129;SDS011;2583;50.946;6.954;2023-04-25T03:22:09;14.77;;;5.40;;
5129;SDS011;2583;50.946;6.954;2023-04-25T03:24:37;5.90;;;4.07;;
5129;SDS011;2583;50.946;6.954;2023-04-25T03:27:04;5.43;;;4.00;;
5129;SDS011;2583;50.946;6.954;2023-04-25T03:29:31;10.27;;;5.27;;
5129;SDS011;2583;50.946;6.954;2023-04-25T03:32:00;9.10;;;4.37;;
5129;SDS011;2583;50.946;6.954;2023-04-25T03:34:27;7.27;;;4.53;;
5129;SDS011;2583;50.946;6.954;2023-04-25T03:36:54;8.93;;;4.60;;
5129;SDS011;2583;50.946;6.954;2023-04-25T03:39:22;9.97;;;4.47;;
5129;SDS011;2583;50.946;6.954;2023-04-25T03:41:52;9.17;;;4.90;;
5129;SDS011;2583;50.946;6.954;2023-04-25T03:44:19;11.40;;;4.50;;
5129;SDS011;2583;50.946;6.954;2023-04-25T03:46:56;13.17;;;5.77;;
5129;SDS011;2583;50.946;6.954;2023-04-25T03:49:24;15.13;;;5.30;;
5129;SDS011;2583;50.946;6.954;2023-04-25T03:51:52;8.13;;;5.00;;
5129;SDS011;2583;50.946;6.954;2023-04-25T03:54:20;11.73;;;5.40;;
5129;SDS011;2583;50.946;6.954;2023-04-25T03:56:47;8.77;;;4.80;;
5129;SDS011;2583;50.946;6.954;2023-04-25T03:59:14;7.73;;;4.10;;
5129;SDS011;2583;50.946;6.954;2023-04-25T04:01:42;10.80;;;5.27;;
5129;SDS011;2583;50.946;6.954;2023-04-25T04:04:10;8.03;;;5.80;;
5129;SDS011;2583;50.946;6.954;2023-04-25T04:06:38;10.57;;;5.07;;
5129;SDS011;2583;50.946;6.954;2023-04-25T04:09:05;12.23;;;5.37;;
5129;SDS011;2583;50.946;6.954;2023-04-25T04:11:37;8.33;;;4.90;;
5129;SDS011;2583;50.946;6.954;2023-04-25T04:14:06;8.90;;;5.00;;
5129;SDS011;2583;50.946;6.954;2023-04-25T04:16:33;11.63;;;5.20;;
5129;SDS011;2583;50.946;6.954;2023-04-25T04:19:00;11.70;;;5.40;;
5129;SDS011;2583;50.946;6.954;2023-04-25T04:21:27;7.50;;;4.93;;
5129;SDS011;2583;50.946;6.954;2023-04-25T04:23:55;13.13;;;5.20;;
5129;SDS011;2583;50.946;6.954;2023-04-25T04:26:24;18.03;;;4.90;;
5129;SDS011;2583;50.946;6.954;2023-04-25T04:28:52;15.93;;;5.33;;
5129;SDS011;2583;50.946;6.954;2023-04-25T04:31:22;7.87;;;5.00;;
5129;SDS011;2583;50.946;6.954;2023-04-25T04:33:50;16.00;;;5.73;;
5129;SDS011;2583;50.946;6.954;2023-04-25T04:36:19;7.80;;;5.13;;
5129;SDS011;2583;50.946;6.954;2023-04-25T04:38:48;14.10;;;6.60;;
5129;SDS011;2583;50.946;6.954;2023-04-25T04:41:17;12.50;;;5.53;;
5129;SDS011;2583;50.946;6.954;2023-04-25T04:43:48;17.23;;;6.57;;
5129;SDS011;2583;50.946;6.954;2023-04-25T04:46:15;8.57;;;4.77;;
5129;SDS011;2583;50.946;6.954;2023-04-25T04:48:45;10.97;;;6.00;;
5129;SDS011;2583;50.946;6.954;2023-04-25T04:51:12;22.00;;;5.70;;
5129;SDS011;2583;50.946;6.954;2023-04-25T04:53:40;12.20;;;5.47;;
5129;SDS011;2583;50.946;6.954;2023-04-25T04:56:07;11.43;;;4.87;;
5129;SDS011;2583;50.946;6.954;2023-04-25T04:58:35;9.43;;;5.30;;
5129;SDS011;2583;50.946;6.954;2023-04-25T05:01:03;13.80;;;4.87;;
5129;SDS011;2583;50.946;6.954;2023-04-25T05:03:30;13.70;;;5.60;;
5129;SDS011;2583;50.946;6.954;2023-04-25T05:05:58;12.80;;;5.07;;
5129;SDS011;2583;50.946;6.954;2023-04-25T05:08:26;9.13;;;4.67;;
5129;SDS011;2583;50.946;6.954;2023-04-25T05:10:54;12.43;;;5.20;;
5129;SDS011;2583;50.946;6.954;2023-04-25T05:13:22;13.40;;;5.70;;
5129;SDS011;2583;50.946;6.954;2023-04-25T05:15:49;13.47;;;5.50;;
5129;SDS011;2583;50.946;6.954;2023-04-25T05:18:16;11.53;;;5.07;;
5129;SDS011;2583;50.946;6.954;2023-04-25T05:20:43;11.50;;;4.70;;
5129;SDS011;2583;50.946;6.954;2023-04-25T05:23:11;12.47;;;5.73;;
5129;SDS011;2583;50.946;6.954;2023-04-25T05:25:38;16.23;;;5.00;;
5129;SDS011;2583;50.946;6.954;2023-04-25T05:28:05;16.10;;;6.00;;
5129;SDS011;2583;50.946;6.954;2023-04-25T05:30:33;11.30;;;5.50;;
5129;SDS011;2583;50.946;6.954;2023-04-25T05:33:02;11.93;;;5.20;;
5129;SDS011;2583;50.946;6.954;2023-04-25T05:35:29;13.37;;;5.57;;
5129;SDS011;2583;50.946;6.954;2023-04-25T05:37:56;9.20;;;4.60;;
5129;SDS011;2583;50.946;6.954;2023-04-25T05:40:25;24.60;;;5.50;;
5129;SDS011;2583;50.946;6.954;2023-04-25T05:42:52;12.70;;;5.33;;
5129;SDS011;2583;50.946;6.954;2023-04-25T05:45:19;7.73;;;4.70;;
5129;SDS011;2583;50.946;6.954;2023-04-25T05:47:47;13.93;;;6.27;;
5129;SDS011;2583;50.946;6.954;2023-04-25T05:50:16;24.27;;;7.00;;
5129;SDS011;2583;50.946;6.954;2023-04-25T05:52:43;12.10;;;5.80;;
5129;SDS011;2583;50.946;6.954;2023-04-25T05:55:11;11.87;;;5.27;;
5129;SDS011;2583;50.946;6.954;2023-04-25T05:57:37;22.50;;;5.40;;
5129;SDS011;2583;50.946;6.954;2023-04-25T06:00:11;15.40;;;5.00;;
5129;SDS011;2583;50.946;6.954;2023-04-25T06:02:39;16.73;;;5.27;;
5129;SDS011;2583;50.946;6.954;2023-04-25T06:05:07;23.73;;;5.50;;
5129;SDS011;2583;50.946;6.954;2023-04-25T06:07:35;9.57;;;5.53;;
5129;SDS011;2583;50.946;6.954;2023-04-25T06:10:03;18.43;;;6.77;;
5129;SDS011;2583;50.946;6.954;2023-04-25T06:12:33;17.33;;;5.80;;
5129;SDS011;2583;50.946;6.954;2023-04-25T06:15:01;10.53;;;5.50;;
5129;SDS011;2583;50.946;6.954;2023-04-25T06:17:38;11.47;;;5.10;;
5129;SDS011;2583;50.946;6.954;2023-04-25T06:20:06;12.20;;;5.87;;
5129;SDS011;2583;50.946;6.954;2023-04-25T06:22:33;18.63;;;5.20;;
5129;SDS011;2583;50.946;6.954;2023-04-25T06:25:01;12.30;;;5.13;;
5129;SDS011;2583;50.946;6.954;2023-04-25T06:27:30;11.20;;;4.73;;
5129;SDS011;2583;50.946;6.954;2023-04-25T06:29:57;12.30;;;5.87;;
5129;SDS011;2583;50.946;6.954;2023-04-25T06:32:25;16.87;;;5.10;;
5129;SDS011;2583;50.946;6.954;2023-04-25T06:34:54;23.43;;;5.67;;
5129;SDS011;2583;50.946;6.954;2023-04-25T06:37:21;13.33;;;6.57;;
5129;SDS011;2583;50.946;6.954;2023-04-25T06:39:49;15.07;;;5.30;;
5129;SDS011;2583;50.946;6.954;2023-04-25T06:42:16;12.80;;;5.20;;
5129;SDS011;2583;50.946;6.954;2023-04-25T06:44:43;20.10;;;6.80;;
5129;SDS011;2583;50.946;6.954;2023-04-25T06:47:10;12.90;;;5.43;;
5129;SDS011;2583;50.946;6.954;2023-04-25T06:49:38;12.80;;;5.13;;
5129;SDS011;2583;50.946;6.954;2023-04-25T06:52:05;13.63;;;6.13;;
5129;SDS011;2583;50.946;6.954;2023-04-25T06:54:33;20.10;;;5.63;;
5129;SDS011;2583;50.946;6.954;2023-04-25T06:57:00;15.93;;;5.23;;
5129;SDS011;2583;50.946;6.954;2023-04-25T06:59:28;17.17;;;5.57;;
5129;SDS011;2583;50.946;6.954;2023-04-25T07:01:58;20.23;;;5.80;;
5129;SDS011;2583;50.946;6.954;2023-04-25T07:04:25;18.00;;;5.50;;
5129;SDS011;2583;50.946;6.954;2023-04-25T07:06:53;25.53;;;5.43;;
5129;SDS011;2583;50.946;6.954;2023-04-25T07:09:21;22.10;;;5.90;;
5129;SDS011;2583;50.946;6.954;2023-04-25T07:11:48;14.97;;;4.60;;
5129;SDS011;2583;50.946;6.954;2023-04-25T07:14:16;13.47;;;5.07;;
5129;SDS011;2583;50.946;6.954;2023-04-25T07:16:43;10.73;;;4.57;;
5129;SDS011;2583;50.946;6.954;2023-04-25T07:19:10;11.50;;;4.20;;
5129;SDS011;2583;50.946;6.954;2023-04-25T07:21:37;23.13;;;4.40;;
5129;SDS011;2583;50.946;6.954;2023-04-25T07:24:04;14.97;;;4.53;;
5129;SDS011;2583;50.946;6.954;2023-04-25T07:26:31;12.27;;;3.73;;
5129;SDS011;2583;50.946;6.954;2023-04-25T07:28:58;19.50;;;4.60;;
5129;SDS011;2583;50.946;6.954;2023-04-25T07:31:24;8.67;;;2.77;;
5129;SDS011;2583;50.946;6.954;2023-04-25T07:33:51;14.27;;;4.13;;
5129;SDS011;2583;50.946;6.954;2023-04-25T07:36:18;17.87;;;4.77;;
5129;SDS011;2583;50.946;6.954;2023-04-25T07:38:45;16.97;;;5.80;;
5129;SDS011;2583;50.946;6.954;2023-04-25T07:41:12;10.10;;;4.90;;
5129;SDS011;2583;50.946;6.954;2023-04-25T07:43:38;15.83;;;4.43;;
5129;SDS011;2583;50.946;6.954;2023-04-25T07:46:05;15.77;;;4.30;;
5129;SDS011;2583;50.946;6.954;2023-04-25T07:48:32;13.27;;;4.10;;
5129;SDS011;2583;50.946;6.954;2023-04-25T07:50:59;7.63;;;3.80;;
5129;SDS011;2583;50.946;6.954;2023-04-25T07:53:26;11.67;;;4.60;;
5129;SDS011;2583;50.946;6.954;2023-04-25T07:55:52;11.87;;;4.47;;
5129;SDS011;2583;50.946;6.954;2023-04-25T07:58:19;14.03;;;4.50;;
5129;SDS011;2583;50.946;6.954;2023-04-25T08:00:48;12.60;;;4.07;;
5129;SDS011;2583;50.946;6.954;2023-04-25T08:03:15;15.43;;;4.37;;
5129;SDS011;2583;50.946;6.954;2023-04-25T08:05:42;14.13;;;4.70;;
5129;SDS011;2583;50.946;6.954;2023-04-25T08:08:09;11.03;;;4.50;;
5129;SDS011;2583;50.946;6.954;2023-04-25T08:10:36;13.43;;;4.20;;
5129;SDS011;2583;50.946;6.954;2023-04-25T08:13:03;11.53;;;3.77;;
5129;SDS011;2583;50.946;6.954;2023-04-25T08:15:30;21.53;;;5.17;;
5129;SDS011;2583;50.946;6.954;2023-04-25T08:17:57;11.10;;;4.10;;
5129;SDS011;2583;50.946;6.954;2023-04-25T08:20:23;11.07;;;4.20;;
5129;SDS011;2583;50.946;6.954;2023-04-25T08:22:51;16.10;;;7.00;;
5129;SDS011;2583;50.946;6.954;2023-04-25T08:25:18;14.20;;;5.70;;
5129;SDS011;2583;50.946;6.954;2023-04-25T08:27:44;8.53;;;5.07;;
5129;SDS011;2583;50.946;6.954;2023-04-25T08:30:11;15.30;;;5.27;;
5129;SDS011;2583;50.946;6.954;2023-04-25T08:32:38;22.90;;;7.63;;
5129;SDS011;2583;50.946;6.954;2023-04-25T08:35:06;9.27;;;3.83;;
5129;SDS011;2583;50.946;6.954;2023-04-25T08:37:33;18.03;;;6.63;;
5129;SDS011;2583;50.946;6.954;2023-04-25T08:39:59;14.53;;;5.57;;
5129;SDS011;2583;50.946;6.954;2023-04-25T08:42:26;15.67;;;3.37;;
5129;SDS011;2583;50.946;6.954;2023-04-25T08:44:55;11.33;;;3.00;;
5129;SDS011;2583;50.946;6.954;2023-04-25T08:47:22;8.77;;;3.20;;
5129;SDS011;2583;50.946;6.954;2023-04-25T08:49:50;12.77;;;4.03;;
5129;SDS011;2583;50.946;6.954;2023-04-25T08:52:21;11.90;;;3.50;;
5129;SDS011;2583;50.946;6.954;2023-04-25T08:54:50;10.37;;;2.27;;
5129;SDS011;2583;50.946;6.954;2023-04-25T08:57:18;9.57;;;2.83;;
5129;SDS011;2583;50.946;6.954;2023-04-25T08:59:46;13.27;;;6.87;;
5129;SDS011;2583;50.946;6.954;2023-04-25T09:02:13;7.97;;;2.33;;
5129;SDS011;2583;50.946;6.954;2023-04-25T09:04:43;22.13;;;5.93;;
5129;SDS011;2583;50.946;6.954;2023-04-25T09:07:10;12.33;;;2.90;;
5129;SDS011;2583;50.946;6.954;2023-04-25T09:09:37;5.50;;;2.17;;
5129;SDS011;2583;50.946;6.954;2023-04-25T09:12:05;4.03;;;2.00;;
5129;SDS011;2583;50.946;6.954;2023-04-25T09:14:32;6.00;;;2.37;;
5129;SDS011;2583;50.946;6.954;2023-04-25T09:17:00;6.03;;;3.03;;
5129;SDS011;2583;50.946;6.954;2023-04-25T09:19:30;6.73;;;2.50;;
5129;SDS011;2583;50.946;6.954;2023-04-25T09:22:06;4.13;;;2.17;;
5129;SDS011;2583;50.946;6.954;2023-04-25T09:27:13;7.67;;;2.13;;
5129;SDS011;2583;50.946;6.954;2023-04-25T09:29:45;7.23;;;2.57;;
5129;SDS011;2583;50.946;6.954;2023-04-25T09:34:47;7.23;;;2.83;;
5129;SDS011;2583;50.946;6.954;2023-04-25T09:37:26;3.30;;;2.10;;
5129;SDS011;2583;50.946;6.954;2023-04-25T09:39:55;5.43;;;3.00;;
5129;SDS011;2583;50.946;6.954;2023-04-25T09:42:23;12.80;;;3.17;;
5129;SDS011;2583;50.946;6.954;2023-04-25T09:44:52;7.93;;;2.00;;
5129;SDS011;2583;50.946;6.954;2023-04-25T09:47:19;4.50;;;2.23;;
5129;SDS011;2583;50.946;6.954;2023-04-25T09:49:50;9.40;;;2.30;;
5129;SDS011;2583;50.946;6.954;2023-04-25T09:52:21;5.67;;;2.30;;
5129;SDS011;2583;50.946;6.954;2023-04-25T09:54:51;16.10;;;2.80;;
5129;SDS011;2583;50.946;6.954;2023-04-25T09:59:47;7.23;;;2.10;;
5129;SDS011;2583;50.946;6.954;2023-04-25T10:02:16;10.00;;;2.67;;
5129;SDS011;2583;50.946;6.954;2023-04-25T10:04:49;10.53;;;2.33;;
5129;SDS011;2583;50.946;6.954;2023-04-25T10:07:24;8.00;;;2.37;;
5129;SDS011;2583;50.946;6.954;2023-04-25T10:09:59;34.10;;;5.10;;
5129;SDS011;2583;50.946;6.954;2023-04-25T10:12:30;22.10;;;3.60;;
5129;SDS011;2583;50.946;6.954;2023-04-25T10:14:59;11.90;;;2.90;;
5129;SDS011;2583;50.946;6.954;2023-04-25T10:17:26;18.70;;;3.60;;
5129;SDS011;2583;50.946;6.954;2023-04-25T10:19:56;19.37;;;3.60;;
5129;SDS011;2583;50.946;6.954;2023-04-25T10:22:34;7.87;;;3.00;;
5129;SDS011;2583;50.946;6.954;2023-04-25T10:25:02;6.97;;;2.33;;
5129;SDS011;2583;50.946;6.954;2023-04-25T10:27:30;4.40;;;2.53;;
5129;SDS011;2583;50.946;6.954;2023-04-25T10:30:02;17.00;;;3.40;;
5129;SDS011;2583;50.946;6.954;2023-04-25T10:32:38;6.13;;;2.40;;
5129;SDS011;2583;50.946;6.954;2023-04-25T10:35:15;8.00;;;1.97;;
5129;SDS011;2583;50.946;6.954;2023-04-25T10:40:31;15.20;;;3.00;;
5129;SDS011;2583;50.946;6.954;2023-04-25T10:43:33;9.47;;;2.30;;
5129;SDS011;2583;50.946;6.954;2023-04-25T10:45:57;11.50;;;1.83;;
5129;SDS011;2583;50.946;6.954;2023-04-25T10:48:26;3.03;;;1.40;;
5129;SDS011;2583;50.946;6.954;2023-04-25T10:51:10;4.87;;;1.70;;
5129;SDS011;2583;50.946;6.954;2023-04-25T10:53:38;19.07;;;3.23;;
5129;SDS011;2583;50.946;6.954;2023-04-25T10:56:11;11.93;;;2.23;;
5129;SDS011;2583;50.946;6.954;2023-04-25T10:58:48;13.90;;;2.80;;
5129;SDS011;2583;50.946;6.954;2023-04-25T11:01:21;16.40;;;3.23;;
5129;SDS011;2583;50.946;6.954;2023-04-25T11:03:56;11.60;;;2.90;;
5129;SDS011;2583;50.946;6.954;2023-04-25T11:06:46;7.10;;;1.63;;
5129;SDS011;2583;50.946;6.954;2023-04-25T11:09:40;9.13;;;1.93;;
5129;SDS011;2583;50.946;6.954;2023-04-25T11:12:07;32.37;;;8.27;;
5129;SDS011;2583;50.946;6.954;2023-04-25T11:14:35;20.00;;;6.77;;
5129;SDS011;2583;50.946;6.954;2023-04-25T11:17:02;13.00;;;3.20;;
5129;SDS011;2583;50.946;6.954;2023-04-25T11:19:29;23.93;;;6.83;;
5129;SDS011;2583;50.946;6.954;2023-04-25T11:22:00;21.63;;;6.03;;
5129;SDS011;2583;50.946;6.954;2023-04-25T11:24:29;18.03;;;5.67;;
5129;SDS011;2583;50.946;6.954;2023-04-25T11:27:00;28.97;;;4.20;;
5129;SDS011;2583;50.946;6.954;2023-04-25T11:29:32;8.90;;;2.37;;
5129;SDS011;2583;50.946;6.954;2023-04-25T11:32:00;6.20;;;1.80;;
5129;SDS011;2583;50.946;6.954;2023-04-25T11:34:28;7.23;;;2.30;;
5129;SDS011;2583;50.946;6.954;2023-04-25T11:37:00;17.67;;;4.77;;
5129;SDS011;2583;50.946;6.954;2023-04-25T11:39:28;10.13;;;1.93;;
5129;SDS011;2583;50.946;6.954;2023-04-25T11:41:56;4.77;;;1.80;;
5129;SDS011;2583;50.946;6.954;2023-04-25T11:44:23;25.83;;;7.43;;
5129;SDS011;2583;50.946;6.954;2023-04-25T11:46:50;6.57;;;2.20;;
5129;SDS011;2583;50.946;6.954;2023-04-25T11:49:16;4.80;;;1.80;;
5129;SDS011;2583;50.946;6.954;2023-04-25T11:51:46;10.53;;;3.53;;
5129;SDS011;2583;50.946;6.954;2023-04-25T11:54:14;21.63;;;5.80;;
5129;SDS011;2583;50.946;6.954;2023-04-25T11:56:42;18.93;;;5.40;;
5129;SDS011;2583;50.946;6.954;2023-04-25T11:59:09;18.30;;;2.90;;
5129;SDS011;2583;50.946;6.954;2023-04-25T12:01:39;8.93;;;1.47;;
5129;SDS011;2583;50.946;6.954;2023-04-25T12:04:10;3.90;;;1.90;;
5129;SDS011;2583;50.946;6.954;2023-04-25T12:06:43;6.47;;;1.60;;
5129;SDS011;2583;50.946;6.954;2023-04-25T12:09:16;45.33;;;5.23;;
5129;SDS011;2583;50.946;6.954;2023-04-25T12:11:56;29.90;;;4.17;;
5129;SDS011;2583;50.946;6.954;2023-04-25T12:14:28;77.53;;;8.20;;
5129;SDS011;2583;50.946;6.954;2023-04-25T12:16:58;4.00;;;1.63;;
5129;SDS011;2583;50.946;6.954;2023-04-25T12:19:26;19.17;;;2.80;;
5129;SDS011;2583;50.946;6.954;2023-04-25T12:22:00;23.30;;;4.23;;
5129;SDS011;2583;50.946;6.954;2023-04-25T12:24:28;41.60;;;10.00;;
5129;SDS011;2583;50.946;6.954;2023-04-25T12:27:00;36.00;;;7.27;;
5129;SDS011;2583;50.946;6.954;2023-04-25T12:29:29;3.50;;;1.37;;
5129;SDS011;2583;50.946;6.954;2023-04-25T12:32:13;4.77;;;1.90;;
5129;SDS011;2583;50.946;6.954;2023-04-25T12:34:40;55.43;;;7.53;;
5129;SDS011;2583;50.946;6.954;2023-04-25T12:37:06;29.67;;;5.17;;
5129;SDS011;2583;50.946;6.954;2023-04-25T12:39:33;7.37;;;3.00;;
5129;SDS011;2583;50.946;6.954;2023-04-25T12:42:00;15.90;;;5.77;;
5129;SDS011;2583;50.946;6.954;2023-04-25T12:44:27;24.23;;;5.60;;
5129;SDS011;2583;50.946;6.954;2023-04-25T12:46:54;7.77;;;2.10;;
5129;SDS011;2583;50.946;6.954;2023-04-25T12:49:21;97.13;;;11.30;;
5129;SDS011;2583;50.946;6.954;2023-04-25T12:51:48;52.30;;;9.07;;
5129;SDS011;2583;50.946;6.954;2023-04-25T12:54:15;13.40;;;2.93;;
5129;SDS011;2583;50.946;6.954;2023-04-25T12:56:42;4.47;;;2.00;;
5129;SDS011;2583;50.946;6.954;2023-04-25T12:59:09;2.77;;;2.00;;
5129;SDS011;2583;50.946;6.954;2023-04-25T13:01:35;16.20;;;3.73;;
5129;SDS011;2583;50.946;6.954;2023-04-25T13:04:02;10.53;;;2.00;;
5129;SDS011;2583;50.946;6.954;2023-04-25T13:06:30;4.87;;;1.63;;
5129;SDS011;2583;50.946;6.954;2023-04-25T13:08:57;2.87;;;1.50;;
5129;SDS011;2583;50.946;6.954;2023-04-25T13:11:23;2.90;;;1.63;;
5129;SDS011;2583;50.946;6.954;2023-04-25T13:13:50;3.10;;;1.53;;
5129;SDS011;2583;50.946;6.954;2023-04-25T13:16:18;4.23;;;1.07;;
5129;SDS011;2583;50.946;6.954;2023-04-25T13:18:47;2.50;;;0.90;;
5129;SDS011;2583;50.946;6.954;2023-04-25T13:21:14;4.50;;;1.67;;
5129;SDS011;2583;50.946;6.954;2023-04-25T13:23:41;2.60;;;0.83;;
5129;SDS011;2583;50.946;6.954;2023-04-25T13:26:09;1.67;;;0.80;;
5129;SDS011;2583;50.946;6.954;2023-04-25T13:28:36;1.70;;;0.80;;
5129;SDS011;2583;50.946;6.954;2023-04-25T13:31:03;2.23;;;1.23;;
5129;SDS011;2583;50.946;6.954;2023-04-25T13:33:31;1.57;;;0.80;;
5129;SDS011;2583;50.946;6.954;2023-04-25T13:36:00;4.87;;;1.00;;
5129;SDS011;2583;50.946;6.954;2023-04-25T13:38:27;1.43;;;0.80;;
5129;SDS011;2583;50.946;6.954;2023-04-25T13:40:54;2.80;;;0.90;;
5129;SDS011;2583;50.946;6.954;2023-04-25T13:43:22;2.10;;;1.07;;
5129;SDS011;2583;50.946;6.954;2023-04-25T13:45:49;3.33;;;1.40;;
5129;SDS011;2583;50.946;6.954;2023-04-25T13:48:18;2.40;;;1.10;;
5129;SDS011;2583;50.946;6.954;2023-04-25T13:50:46;4.30;;;1.43;;
5129;SDS011;2583;50.946;6.954;2023-04-25T13:53:13;4.80;;;1.60;;
5129;SDS011;2583;50.946;6.954;2023-04-25T13:55:41;3.23;;;1.27;;
5129;SDS011;2583;50.946;6.954;2023-04-25T13:58:08;1.73;;;0.80;;
5129;SDS011;2583;50.946;6.954;2023-04-25T14:00:37;2.27;;;1.00;;
5129;SDS011;2583;50.946;6.954;2023-04-25T14:03:06;3.00;;;1.30;;
5129;SDS011;2583;50.946;6.954;2023-04-25T14:05:35;3.30;;;1.30;;
5129;SDS011;2583;50.946;6.954;2023-04-25T14:08:07;3.33;;;1.00;;
5129;SDS011;2583;50.946;6.954;2023-04-25T14:10:35;2.10;;;1.10;;
5129;SDS011;2583;50.946;6.954;2023-04-25T14:13:03;6.50;;;1.40;;
5129;SDS011;2583;50.946;6.954;2023-04-25T14:15:34;1.90;;;1.10;;
5129;SDS011;2583;50.946;6.954;2023-04-25T14:18:01;1.87;;;1.10;;
5129;SDS011;2583;50.946;6.954;2023-04-25T14:20:29;3.57;;;1.30;;
5129;SDS011;2583;50.946;6.954;2023-04-25T14:22:57;3.60;;;1.40;;
5129;SDS011;2583;50.946;6.954;2023-04-25T14:25:24;4.17;;;2.10;;
5129;SDS011;2583;50.946;6.954;2023-04-25T14:27:52;3.17;;;1.83;;
5129;SDS011;2583;50.946;6.954;2023-04-25T14:30:20;13.50;;;10.40;;
5129;SDS011;2583;50.946;6.954;2023-04-25T14:32:48;5.60;;;1.90;;
5129;SDS011;2583;50.946;6.954;2023-04-25T14:35:17;5.47;;;1.90;;
5129;SDS011;2583;50.946;6.954;2023-04-25T14:37:44;5.00;;;1.53;;
5129;SDS011;2583;50.946;6.954;2023-04-25T14:40:11;2.00;;;1.00;;
5129;SDS011;2583;50.946;6.954;2023-04-25T14:42:39;1.47;;;0.73;;
5129;SDS011;2583;50.946;6.954;2023-04-25T14:45:07;2.90;;;0.67;;
5129;SDS011;2583;50.946;6.954;2023-04-25T14:47:37;2.50;;;0.80;;
5129;SDS011;2583;50.946;6.954;2023-04-25T14:50:05;4.13;;;1.30;;
5129;SDS011;2583;50.946;6.954;2023-04-25T14:52:33;2.67;;;1.60;;
5129;SDS011;2583;50.946;6.954;2023-04-25T14:54:59;3.80;;;1.50;;
5129;SDS011;2583;50.946;6.954;2023-04-25T14:57:34;2.77;;;1.50;;
5129;SDS011;2583;50.946;6.954;2023-04-25T15:00:01;4.27;;;1.20;;
5129;SDS011;2583;50.946;6.954;2023-04-25T15:02:35;3.40;;;1.30;;
5129;SDS011;2583;50.946;6.954;2023-04-25T15:05:03;2.77;;;1.47;;
5129;SDS011;2583;50.946;6.954;2023-04-25T15:07:30;3.27;;;0.90;;
5129;SDS011;2583;50.946;6.954;2023-04-25T15:09:59;2.90;;;0.83;;
5129;SDS011;2583;50.946;6.954;2023-04-25T15:12:31;3.43;;;1.30;;
5129;SDS011;2583;50.946;6.954;2023-04-25T15:15:08;2.90;;;1.20;;
5129;SDS011;2583;50.946;6.954;2023-04-25T15:17:51;4.30;;;0.90;;
5129;SDS011;2583;50.946;6.954;2023-04-25T15:20:25;2.00;;;0.90;;
5129;SDS011;2583;50.946;6.954;2023-04-25T15:22:55;2.83;;;0.90;;
5129;SDS011;2583;50.946;6.954;2023-04-25T15:25:23;2.57;;;0.93;;
5129;SDS011;2583;50.946;6.954;2023-04-25T15:27:50;2.60;;;0.80;;